MCI weather

Kansas City International Airport
Kansas City, Missouri, United States

Public forecast

Using degrees Fahrenheit for public forecast. Weather courtesy of forecast.io.

Current aviation weather report (METAR) for Kansas City International Airport

Retrieved 2020/04/03 07:26 UTC (11 minutes ago):

KMCI 030726Z 32011G17KT 10SM BKN013 BKN041 OVC080 03/M01 A3002 RMK AO2 T00281006

Aviation forecast (TAF) for Kansas City International Airport

Retrieved 2020/04/03 06:22 UTC (1 hour ago):

TAF KMCI 030520Z 0306/0406 34012G20KT P6SM -SHRA OVC050 FM030800 33012G20KT P6SM -SHRA OVC015 TEMPO 0310/0314 6SM -RA BR BKN008 FM031400 34012G20KT 3SM -SHRA OVC008 FM031600 34012G20KT 2SM -SHRA OVC008 FM032300 35010KT P6SM SCT015 SCT030